Utah County RPA :: 5SPENCER

liberation: 2020-10-03  08:00     latitude: 44.350800     longitude: -112.167467 93 birds
# LOFT PRING MILES ARRIVAL SPEED ToWin
1 Riley Allred AU20-UCA-101 293.96 2020-10-03 13:42:57.050 1508.581 00:00:00
2 Riley Allred AU20-UCA-107 293.96 2020-10-03 13:58:02.701 1444.984 00:15:06
3 Riley Allred AU20-UCA-166 293.96 2020-10-03 13:58:03.064 1444.959 00:15:06
4 Riley Allred AU20-UCA-169 293.96 2020-10-03 13:59:02.042 1441.003 00:16:05
5 Riley Allred AU20-UCA-102 293.96 2020-10-03 14:01:24.824 1431.515 00:18:28
6 Riley Allred AU20-UCA-106 293.96 2020-10-03 14:01:27.580 1431.333 00:18:31
7 Cole Allred AU20-NLI-2015 293.96 2020-10-03 14:01:31.794 1431.055 00:18:35
8 Riley Allred AU20-UCA-153 293.96 2020-10-03 14:01:34.898 1430.850 00:18:38
9 Cole Allred AU20-NLI-2004 293.96 2020-10-03 14:01:38.230 1430.631 00:18:41
10 Craig Allred AU20-UVI-359 293.96 2020-10-03 14:02:33.045 1427.026 00:19:36
11 Riley Allred AU20-UCA-139 293.96 2020-10-03 14:02:33.894 1426.970 00:19:37
12 Cole Allred IF20-VDB-0060 293.96 2020-10-03 14:02:37.729 1426.718 00:19:41
13 Riley Allred AU20-UCA-119 293.96 2020-10-03 14:03:17.671 1424.104 00:20:21
14 Riley Allred AU20-UCA-127 293.96 2020-10-03 14:03:18.311 1424.062 00:20:21
15 Cole Allred AU20-NLI-2413 293.96 2020-10-03 14:03:22.360 1423.798 00:20:25
16 Riley Allred AU20-UCA-136 293.96 2020-10-03 14:03:23.179 1423.744 00:20:26
17 Riley Allred AU20-UCA-145 293.96 2020-10-03 14:03:32.978 1423.105 00:20:36
18 Craig Allred AU20-UVI-329 293.96 2020-10-03 14:04:14.587 1420.395 00:21:18
19 Dry Creek Lofts AU20-NEBO-322 300.028 2020-10-03 14:11:51.457 1420.031 00:21:50
20 Dry Creek Lofts AU20-NEBO-327 300.028 2020-10-03 14:11:52.538 1419.962 00:21:51
21 Peery Loft AU20-UCA-0003 298.011 2020-10-03 14:12:24.219 1408.417 00:24:44
22 Peery Loft AU20-UCA-0022 298.011 2020-10-03 14:12:24.618 1408.392 00:24:44
23 Riley Allred AU20-UCA-161 293.96 2020-10-03 14:09:34.777 1399.886 00:26:38
24 Peery Loft AU20-UCA-0035 298.011 2020-10-03 14:15:02.549 1398.507 00:27:22
25 Ross Johnson AU20-NEBO-45 292.437 2020-10-03 14:08:08.381 1398.083 00:26:58
26 Dry Creek Lofts AU20-NEBO-360 300.028 2020-10-03 14:18:32.705 1394.944 00:28:31
27 Ross Johnson AU20-NEBO-13 292.437 2020-10-03 14:10:57.892 1387.436 00:29:47
28 Peery Loft AU20-UCA-0033 298.011 2020-10-03 14:18:14.946 1386.652 00:30:34
29 Peery Loft AU20-UCA-0019 298.011 2020-10-03 14:18:20.252 1386.327 00:30:40
30 Craig Allred AU20-UVI-361 293.96 2020-10-03 14:17:02.347 1372.190 00:34:05
31 Dry Creek Lofts AU20-NEB0-334 300.028 2020-10-03 14:28:10.025 1360.366 00:38:08
32 Cole Allred AU20-HARM-1695 293.96 2020-10-03 14:21:29.352 1356.183 00:38:32
33 Ross Johnson AU20-NEBO-25 292.437 2020-10-03 14:20:41.985 1351.958 00:39:31
34 Dry Creek Lofts AU20-NEBO-301 300.028 2020-10-03 14:33:40.806 1341.315 00:43:39
35 Riley Allred AU20-UCA-170 293.96 2020-10-03 14:25:58.919 1340.397 00:43:02
36 Craig Allred AU20-UVI-366 293.96 2020-10-03 14:25:59.926 1340.339 00:43:03
37 Peery Loft AU20-UCA-0005 298.011 2020-10-03 14:31:22.628 1340.139 00:43:42
38 Cole Allred AU20-NLI-2419 293.96 2020-10-03 14:26:18.918 1339.241 00:43:22
39 Dry Creek Lofts AU20-NEBO-357 300.028 2020-10-03 14:36:39.470 1331.246 00:46:38
40 Cole Allred AU20-NLI-2021 293.96 2020-10-03 14:33:30.764 1314.746 00:50:34
41 Riley Allred AU20-UCA-116 293.96 2020-10-03 14:35:54.053 1306.815 00:52:57
42 Cole Allred AU20-NLI-2503 293.96 2020-10-03 14:35:57.544 1306.623 00:53:00
43 Craig Allred AU20-UVI-303 293.96 2020-10-03 14:36:25.286 1305.099 00:53:28
44 Cole Allred IF20-VDB-25 293.96 2020-10-03 14:36:46.758 1303.922 00:53:50
45 Iron Will AU20-UCA-0266 297.628 2020-10-03 14:42:29.018 1301.484 00:55:15
46 Dry Creek Lofts AU20-NEBO-332 300.028 2020-10-03 14:45:52.540 1301.012 00:55:51
47 Peery Loft AU20-UCA-0067 298.011 2020-10-03 14:43:20.021 1300.411 00:55:39
48 Iron Will AU20-UCA-0250 297.628 2020-10-03 14:43:49.003 1297.188 00:56:35
49 Cole Allred IF20-VDB-31 293.96 2020-10-03 14:39:37.524 1294.635 00:56:40
50 Peery Loft AU20-UCA-0025 298.011 2020-10-03 14:50:45.892 1276.886 01:03:05
51 Cole Allred AU20-NLI-2417 293.96 2020-10-03 14:49:14.977 1264.190 01:06:18
52 Dry Creek Lofts AU20-NEBO-340 300.028 2020-10-03 14:59:02.715 1260.125 01:09:01
53 Cole Allred AU20-HARM-1689 293.96 2020-10-03 14:54:26.369 1248.359 01:11:29
54 Riley Allred AU20-UCA-144 293.96 2020-10-03 14:58:52.585 1235.136 01:15:56
55 Dry Creek Lofts AU20-NEBO-328 300.028 2020-10-03 15:12:18.505 1221.464 01:22:17
56 Iron Will AU20-UCA-0246 297.628 2020-10-03 15:14:17.414 1206.166 01:27:04
57 Craig Allred AU20-UVI-314 293.96 2020-10-03 15:09:26.030 1204.770 01:26:29
58 Ross Johnson AU20-NEBO-20 292.437 2020-10-03 15:09:24.282 1198.613 01:28:14
59 Iron Will AU20-UCA-0274 297.628 2020-10-03 15:18:11.145 1195.443 01:30:57
60 Peery Loft AU20-UCA-0042 298.011 2020-10-03 15:19:07.359 1194.426 01:31:27
61 Riley Allred AU20-UCA-151 293.96 2020-10-03 15:17:56.403 1181.370 01:34:59
62 Peery Loft AU20-UCA-0041 298.011 2020-10-03 15:25:38.202 1176.967 01:37:58
63 Dry Creek Lofts AU20-NEBO-329 300.028 2020-10-03 15:48:58.091 1125.981 01:58:56
64 Craig Allred AU20-UVI-357 293.96 2020-10-03 15:43:08.614 1117.082 02:00:12
65 Peery Loft AU20-UCA-0034 298.011 2020-10-03 15:52:24.767 1110.257 02:04:44
66 Peery Loft AU20-UCA-0032 298.011 2020-10-03 15:59:12.905 1094.497 02:11:32
67 Iron Will AU20-UCA-0277 297.628 2020-10-03 16:03:43.613 1082.896 02:16:30
68 Riley Allred AU20-UCA-147 293.96 2020-10-03 16:01:29.644 1074.508 02:18:33
69 Iron Will AU20-UCA-0258 297.628 2020-10-03 16:15:50.347 1056.444 02:28:36
70 Dry Creek Lofts AU20-NEBO-361 300.028 2020-10-03 16:21:27.770 1053.018 02:31:26
71 Dry Creek Lofts AU20-UCA-301 300.028 2020-10-03 16:40:00.101 1015.476 02:49:58
72 Craig Allred AU20-UVI-358 293.96 2020-10-03 16:41:30.145 992.074 02:58:33
73 Dry Creek Lofts AU20-NEBO-305 300.028 2020-10-03 17:07:08.705 965.099 03:17:07
74 Dry Creek Lofts AU20-NEBO-315 300.028 2020-10-03 17:24:42.238 935.090 03:34:40
75 Cole Allred AU20-HARM-2617 293.96 2020-10-03 17:35:27.379 899.059 03:52:30
76 Craig Allred AU20-UVI-352 293.96 2020-10-03 17:46:55.890 881.481 04:03:59
77 Peery Loft AU20-UCA-0049 298.011 2020-10-03 18:03:10.136 869.573 04:15:30
78 Dry Creek Lofts AU20-NEBO-311 300.028 2020-10-03 18:09:33.623 866.279 04:19:32
79 Ross Johnson AU20-NEBO-15 292.437 2020-10-03 18:04:57.677 850.782 04:23:47
80 Dry Creek Lofts AU20-UCA-358 300.028 2020-10-03 18:24:37.287 845.391 04:34:35
81 Riley Allred AU20-UCA-157 293.96 2020-10-03 18:40:14.376 808.087 04:57:17
Cole Allred AU20-NLI-2121 0 0000-00-00 00:00:00.000 0.000 00:00:00
Cole Allred IF20-VDB-0055 0 0000-00-00 00:00:00.000 0.000 00:00:00
Dry Creek Lofts AU-20-NEBO-323 0 0000-00-00 00:00:00.000 0.000 00:00:00
Dry Creek Lofts AU20-NEBO-325 0 0000-00-00 00:00:00.000 0.000 00:00:00
Dry Creek Lofts AU20-NEBO-336 0 0000-00-00 00:00:00.000 0.000 00:00:00
Dry Creek Lofts AU20-NEBO-338 0 0000-00-00 00:00:00.000 0.000 00:00:00
Dry Creek Lofts AU20-NEBO-348 0 0000-00-00 00:00:00.000 0.000 00:00:00
Dry Creek Lofts AU20-NEBO-349 0 0000-00-00 00:00:00.000 0.000 00:00:00
Dry Creek Lofts AU20-NEBO-352 0 0000-00-00 00:00:00.000 0.000 00:00:00
Dry Creek Lofts AU20-NEBO-356 0 0000-00-00 00:00:00.000 0.000 00:00:00
Iron Will AU20-UCA-0039 0 0000-00-00 00:00:00.000 0.000 00:00:00
Ross Johnson AU20-NEBO-33 0 0000-00-00 00:00:00.000 0.000 00:00:00